Time;durP1;ratioP1;P1;durP2;ratioP2;P2;SDS_P1;SDS_P2;PMS_P1;PMS_P2;Temp;Humidity;BMP_temperature;BMP_pressure;BME280_temperature;BME280_humidity;BME280_pressure;Samples;Min_cycle;Max_cycle;Signal;HPM_P1;HPM_P2
2022/03/15 00:00:23;;;;;;;0.80;0.80;;;18.10;60.30;;;;;;4975508;28;20516;-13
2022/03/15 00:02:49;;;;;;;1.05;0.80;;;18.10;60.40;;;;;;4976388;28;20094;-12
2022/03/15 00:05:16;;;;;;;0.90;0.90;;;18.00;60.40;;;;;;4989769;28;20114;-13
2022/03/15 00:07:42;;;;;;;0.57;0.57;;;18.10;60.40;;;;;;4995605;28;20047;-12
2022/03/15 00:10:08;;;;;;;1.25;1.00;;;18.10;60.40;;;;;;4995744;28;20147;-13
2022/03/15 00:12:34;;;;;;;0.52;0.52;;;18.10;60.40;;;;;;4994387;28;20046;-12
2022/03/15 00:14:59;;;;;;;0.70;0.70;;;18.10;60.40;;;;;;4995618;28;20042;-13
2022/03/15 00:17:26;;;;;;;0.77;0.70;;;18.00;60.30;;;;;;4981660;28;20047;-13
2022/03/15 00:19:51;;;;;;;0.80;0.70;;;18.10;60.40;;;;;;4978209;28;20054;-13
2022/03/15 00:22:17;;;;;;;2.30;0.80;;;18.10;60.30;;;;;;4979206;28;20058;-12
2022/03/15 00:24:43;;;;;;;0.90;0.85;;;18.00;60.30;;;;;;4979906;28;20057;-12
2022/03/15 00:27:10;;;;;;;0.77;0.68;;;18.10;60.30;;;;;;4992124;28;20069;-13
2022/03/15 00:29:37;;;;;;;0.50;0.50;;;18.00;60.40;;;;;;4997167;28;20042;-13
2022/03/15 00:32:03;;;;;;;0.80;0.70;;;18.00;60.50;;;;;;4999138;28;20066;-12
2022/03/15 00:34:29;;;;;;;0.73;0.57;;;18.00;60.50;;;;;;4991950;28;20050;-14
2022/03/15 00:36:54;;;;;;;0.70;0.70;;;18.00;60.50;;;;;;4981572;28;20043;-13
2022/03/15 00:39:20;;;;;;;1.52;0.50;;;18.00;60.50;;;;;;4997667;28;20113;-12
2022/03/15 00:41:46;;;;;;;0.77;0.77;;;18.00;60.50;;;;;;4998357;28;20038;-14
2022/03/15 00:44:11;;;;;;;0.70;0.60;;;18.00;60.50;;;;;;4998675;28;20050;-13
2022/03/15 00:46:37;;;;;;;0.60;0.60;;;18.00;60.60;;;;;;4996889;28;20041;-13
2022/03/15 00:49:03;;;;;;;0.55;0.50;;;18.00;60.60;;;;;;4998654;28;20055;-12
2022/03/15 00:51:29;;;;;;;0.80;0.75;;;17.90;60.70;;;;;;4992499;28;20035;-13
2022/03/15 00:53:54;;;;;;;0.77;0.50;;;17.90;60.70;;;;;;4979307;28;20496;-13
2022/03/15 00:56:20;;;;;;;0.55;0.55;;;18.00;60.60;;;;;;4978679;28;20448;-13
2022/03/15 00:58:46;;;;;;;0.60;0.60;;;18.00;60.70;;;;;;4993725;28;20046;-13
2022/03/15 01:01:12;;;;;;;0.63;0.63;;;18.00;60.80;;;;;;4998640;28;20141;-13
2022/03/15 01:03:37;;;;;;;0.68;0.68;;;18.00;60.80;;;;;;4997362;28;20104;-13
2022/03/15 01:06:03;;;;;;;0.55;0.55;;;18.00;60.80;;;;;;4979202;28;20050;-13
2022/03/15 01:08:28;;;;;;;0.60;0.50;;;17.90;60.80;;;;;;4978384;28;20125;-12
2022/03/15 01:10:54;;;;;;;0.95;0.80;;;17.90;61.30;;;;;;4979131;28;20039;-12
2022/03/15 01:13:20;;;;;;;0.50;0.50;;;17.90;60.90;;;;;;4995353;28;20050;-14
2022/03/15 01:15:46;;;;;;;1.00;0.68;;;17.90;60.80;;;;;;4998273;28;20050;-14
2022/03/15 01:18:12;;;;;;;0.73;0.63;;;17.90;60.90;;;;;;4997690;28;20054;-12
2022/03/15 01:20:42;;;;;;;1.02;1.02;;;17.90;60.90;;;;;;4997592;28;20045;-14
2022/03/15 01:23:07;;;;;;;0.70;0.63;;;17.90;61.00;;;;;;4997711;28;20054;-13
2022/03/15 01:25:33;;;;;;;0.80;0.80;;;17.90;61.00;;;;;;4997695;28;20138;-13
2022/03/15 01:27:59;;;;;;;0.63;0.63;;;17.90;61.00;;;;;;4998202;28;20046;-13
2022/03/15 01:30:25;;;;;;;0.70;0.70;;;17.90;61.10;;;;;;4988383;28;20108;-12
2022/03/15 01:32:50;;;;;;;0.70;0.70;;;17.90;61.00;;;;;;4998204;28;20053;-12
2022/03/15 01:35:16;;;;;;;1.00;0.70;;;17.90;61.00;;;;;;4997519;28;20047;-12
2022/03/15 01:37:42;;;;;;;0.95;0.70;;;17.90;61.00;;;;;;4997275;28;20050;-12
2022/03/15 01:40:08;;;;;;;0.73;0.40;;;17.90;61.00;;;;;;4998016;28;20096;-13
2022/03/15 01:42:33;;;;;;;0.73;0.57;;;17.90;61.00;;;;;;4996784;28;20069;-13
2022/03/15 01:45:01;;;;;;;0.80;0.73;;;17.80;61.00;;;;;;4997696;28;20053;-13
2022/03/15 01:47:27;;;;;;;0.50;0.50;;;17.90;61.10;;;;;;4997205;28;20117;-13
2022/03/15 01:49:53;;;;;;;0.55;0.50;;;17.90;61.10;;;;;;4997860;28;20038;-13
2022/03/15 01:52:18;;;;;;;0.57;0.57;;;17.90;61.10;;;;;;4997118;28;20053;-13
2022/03/15 01:54:44;;;;;;;0.60;0.60;;;17.90;61.10;;;;;;4997099;28;20837;-13
2022/03/15 01:57:10;;;;;;;0.70;0.70;;;17.90;61.10;;;;;;4997080;28;20113;-13
2022/03/15 01:59:36;;;;;;;0.77;0.73;;;17.80;61.10;;;;;;4996827;28;20043;-13
2022/03/15 02:02:02;;;;;;;0.60;0.60;;;17.90;61.10;;;;;;4997524;28;20562;-13
2022/03/15 02:04:27;;;;;;;0.70;0.70;;;17.80;61.10;;;;;;4996390;28;20034;-13
2022/03/15 02:07:09;;;;;;;0.68;0.68;;;17.80;61.90;;;;;;4997404;28;20042;-13
2022/03/15 02:09:35;;;;;;;0.80;0.80;;;17.80;61.20;;;;;;4995492;28;20096;-13
2022/03/15 02:12:01;;;;;;;0.63;0.63;;;17.80;61.30;;;;;;4997386;28;20050;-13
2022/03/15 02:14:26;;;;;;;0.85;0.82;;;17.80;61.30;;;;;;4994593;28;20046;-13
2022/03/15 02:16:52;;;;;;;0.70;0.70;;;17.80;61.30;;;;;;4979781;28;20101;-13
2022/03/15 02:19:18;;;;;;;1.02;0.55;;;17.80;61.20;;;;;;4997084;28;20054;-14
2022/03/15 02:21:43;;;;;;;0.77;0.77;;;17.80;61.30;;;;;;4995862;28;20125;-12
2022/03/15 02:24:09;;;;;;;0.50;0.50;;;17.80;61.30;;;;;;4997001;28;20073;-13
2022/03/15 02:26:35;;;;;;;0.52;0.50;;;17.80;61.40;;;;;;4995903;28;20042;-13
2022/03/15 02:29:00;;;;;;;0.60;0.60;;;17.80;61.30;;;;;;4996826;28;20046;-13
2022/03/15 02:31:26;;;;;;;0.82;0.63;;;17.80;61.30;;;;;;4995892;28;20458;-13
2022/03/15 02:33:51;;;;;;;0.93;0.60;;;17.80;61.30;;;;;;4996974;28;20046;-13
2022/03/15 02:36:17;;;;;;;0.65;0.65;;;17.80;61.40;;;;;;4995732;28;20034;-13
2022/03/15 02:38:44;;;;;;;0.60;0.60;;;17.80;61.30;;;;;;4995995;28;20049;-13
2022/03/15 02:41:09;;;;;;;0.60;0.60;;;17.80;61.40;;;;;;4995448;28;20407;-13
2022/03/15 02:43:35;;;;;;;0.60;0.60;;;17.80;62.20;;;;;;4995818;28;20065;-13
2022/03/15 02:46:00;;;;;;;0.43;0.43;;;17.80;61.30;;;;;;4982745;28;20522;-14
2022/03/15 02:48:26;;;;;;;0.70;0.70;;;17.80;61.40;;;;;;4976724;28;20043;-12
2022/03/15 02:50:52;;;;;;;0.55;0.55;;;17.80;61.40;;;;;;4977753;28;20658;-13
2022/03/15 02:53:17;;;;;;;0.68;0.68;;;17.80;61.40;;;;;;4977160;28;20050;-13
2022/03/15 02:55:46;;;;;;;0.88;0.80;;;17.80;61.50;;;;;;4976971;28;20061;-13
2022/03/15 02:58:12;;;;;;;0.50;0.50;;;17.80;61.40;;;;;;4977085;28;20526;-13
2022/03/15 03:00:37;;;;;;;0.63;0.50;;;17.80;61.50;;;;;;4984835;28;20594;-14
2022/03/15 03:03:03;;;;;;;0.80;0.60;;;17.80;61.40;;;;;;4996512;28;20038;-13
2022/03/15 03:05:29;;;;;;;0.60;0.60;;;17.80;61.40;;;;;;4995791;28;20482;-13
2022/03/15 03:07:55;;;;;;;0.70;0.70;;;17.80;61.50;;;;;;4996440;28;20070;-13
2022/03/15 03:10:21;;;;;;;0.80;0.50;;;17.80;61.50;;;;;;4977388;28;20083;-14
2022/03/15 03:12:48;;;;;;;0.52;0.52;;;17.70;61.50;;;;;;4976846;28;20121;-13
2022/03/15 03:15:14;;;;;;;1.00;0.60;;;17.80;61.50;;;;;;4976724;28;20058;-13
2022/03/15 03:17:42;;;;;;;0.55;0.55;;;17.70;61.70;;;;;;4976328;28;20043;-13
2022/03/15 03:20:12;;;;;;;0.40;0.40;;;17.70;61.60;;;;;;4993720;28;20078;-13
2022/03/15 03:22:39;;;;;;;0.50;0.50;;;17.80;61.50;;;;;;4995492;28;20062;-12
2022/03/15 03:25:05;;;;;;;0.60;0.60;;;17.70;61.50;;;;;;4995759;28;20128;-13
2022/03/15 03:27:31;;;;;;;0.40;0.40;;;17.70;61.60;;;;;;4995624;28;20526;-13
2022/03/15 03:29:58;;;;;;;0.60;0.52;;;17.70;61.60;;;;;;4995819;28;20046;-12
2022/03/15 03:32:25;;;;;;;0.38;0.30;;;17.70;61.60;;;;;;4995643;28;20407;-13
2022/03/15 03:34:51;;;;;;;0.57;0.57;;;17.80;61.60;;;;;;4995731;28;20046;-13
2022/03/15 03:37:17;;;;;;;1.08;0.60;;;17.70;61.50;;;;;;4993258;28;20042;-12
2022/03/15 03:39:42;;;;;;;0.82;0.60;;;17.70;61.50;;;;;;4975958;28;20050;-13
2022/03/15 03:42:08;;;;;;;0.77;0.50;;;17.70;61.50;;;;;;4983324;28;20125;-13
2022/03/15 03:44:36;;;;;;;0.43;0.40;;;17.70;61.50;;;;;;4995092;28;20583;-12
2022/03/15 03:47:02;;;;;;;0.60;0.57;;;17.70;61.70;;;;;;4982934;28;20066;-13
2022/03/15 03:49:29;;;;;;;0.50;0.50;;;17.70;61.80;;;;;;4976055;28;20073;-14
2022/03/15 03:51:55;;;;;;;0.60;0.60;;;17.70;61.80;;;;;;4978465;28;20050;-14
2022/03/15 03:54:21;;;;;;;0.50;0.50;;;17.70;61.70;;;;;;4999811;28;20038;-13
2022/03/15 03:56:46;;;;;;;1.02;0.47;;;17.70;61.60;;;;;;4998628;28;20411;-13
2022/03/15 03:59:12;;;;;;;0.52;0.50;;;17.70;61.60;;;;;;4999798;28;20102;-13
2022/03/15 04:01:39;;;;;;;0.50;0.50;;;17.70;61.70;;;;;;4999262;28;20046;-12
2022/03/15 04:04:05;;;;;;;0.50;0.50;;;17.70;61.70;;;;;;4999263;28;20133;-13
2022/03/15 04:06:32;;;;;;;0.98;0.63;;;17.70;61.80;;;;;;4999112;28;20423;-13
2022/03/15 04:08:59;;;;;;;0.47;0.47;;;17.70;61.80;;;;;;4999189;28;20069;-13
2022/03/15 04:11:25;;;;;;;0.40;0.40;;;17.70;61.90;;;;;;4999707;28;20042;-13
2022/03/15 04:13:51;;;;;;;0.80;0.60;;;17.70;61.80;;;;;;4998871;28;20039;-12
2022/03/15 04:16:17;;;;;;;0.63;0.63;;;17.70;61.80;;;;;;4999657;28;20106;-13
2022/03/15 04:18:43;;;;;;;0.30;0.30;;;17.70;61.90;;;;;;4998212;28;20038;-13
2022/03/15 04:21:09;;;;;;;0.50;0.40;;;17.70;61.80;;;;;;4999499;28;20053;-13
2022/03/15 04:23:34;;;;;;;0.47;0.45;;;17.70;61.90;;;;;;4998827;28;20108;-13
2022/03/15 04:26:00;;;;;;;0.40;0.40;;;17.70;61.90;;;;;;4999427;28;20073;-13
2022/03/15 04:28:26;;;;;;;0.50;0.43;;;17.60;61.80;;;;;;4991391;28;20053;-12
2022/03/15 04:30:52;;;;;;;0.55;0.40;;;17.60;61.90;;;;;;4989287;28;20053;-13
2022/03/15 04:33:17;;;;;;;0.45;0.45;;;17.60;62.00;;;;;;4999332;28;20468;-12
2022/03/15 04:35:43;;;;;;;0.63;0.63;;;17.60;61.90;;;;;;4998607;28;20463;-12
2022/03/15 04:38:09;;;;;;;0.40;0.40;;;17.60;61.80;;;;;;4988371;28;20134;-12
2022/03/15 04:40:34;;;;;;;0.60;0.60;;;17.70;61.80;;;;;;4988475;28;20054;-17
2022/03/15 04:43:01;;;;;;;0.50;0.50;;;17.70;61.80;;;;;;4982060;28;20046;-13
2022/03/15 04:45:27;;;;;;;0.90;0.60;;;17.60;61.90;;;;;;4996565;28;20049;-12
2022/03/15 04:47:52;;;;;;;0.52;0.52;;;17.60;61.90;;;;;;4978982;28;20042;-13
2022/03/15 04:50:18;;;;;;;0.40;0.40;;;17.60;62.00;;;;;;4989678;28;20407;-12
2022/03/15 04:52:44;;;;;;;1.52;0.50;;;17.60;62.10;;;;;;4978727;28;20050;-12
2022/03/15 04:55:09;;;;;;;0.50;0.50;;;17.60;62.00;;;;;;4992909;28;20053;-13
2022/03/15 04:57:35;;;;;;;0.50;0.50;;;17.60;62.10;;;;;;4998157;28;20042;-13
2022/03/15 05:00:01;;;;;;;0.50;0.50;;;17.60;62.10;;;;;;4997753;28;20050;-13
2022/03/15 05:02:28;;;;;;;0.50;0.50;;;17.60;62.10;;;;;;4995915;28;20057;-14
2022/03/15 05:04:53;;;;;;;0.82;0.60;;;17.60;62.10;;;;;;4997267;28;20104;-13
2022/03/15 05:07:19;;;;;;;0.82;0.40;;;17.60;62.10;;;;;;4997155;28;20117;-13
2022/03/15 05:12:29;;;;;;;0.40;0.40;;;17.60;62.20;;;;;;4987581;28;20100;-13
2022/03/15 05:14:54;;;;;;;0.43;0.30;;;17.60;62.10;;;;;;4997092;28;20054;-13
2022/03/15 05:17:20;;;;;;;0.35;0.35;;;17.60;62.20;;;;;;4998337;28;20122;-13
2022/03/15 05:19:47;;;;;;;0.50;0.40;;;17.60;62.20;;;;;;4989039;28;20050;-13
2022/03/15 05:22:12;;;;;;;0.50;0.50;;;17.60;62.20;;;;;;4998129;28;20038;-12
2022/03/15 05:24:38;;;;;;;0.50;0.50;;;17.60;62.10;;;;;;4990840;28;20042;-13
2022/03/15 05:27:04;;;;;;;0.40;0.40;;;17.60;62.20;;;;;;4988838;28;20049;-13
2022/03/15 05:29:29;;;;;;;0.40;0.40;;;17.60;62.30;;;;;;4981053;28;20039;-13
2022/03/15 05:31:55;;;;;;;0.30;0.30;;;17.60;62.20;;;;;;4996107;28;20042;-14
2022/03/15 05:34:21;;;;;;;0.40;0.40;;;17.60;62.30;;;;;;4998180;28;20042;-14
2022/03/15 05:36:48;;;;;;;0.52;0.40;;;17.50;62.30;;;;;;4980679;28;20078;-14
2022/03/15 05:39:14;;;;;;;1.00;0.40;;;17.50;62.30;;;;;;4993654;28;20061;-14
2022/03/15 05:41:41;;;;;;;0.40;0.40;;;17.60;62.30;;;;;;4996611;28;20069;-13
2022/03/15 05:44:07;;;;;;;0.65;0.65;;;17.60;62.30;;;;;;4996530;28;20042;-14
2022/03/15 05:46:33;;;;;;;0.40;0.40;;;17.60;62.30;;;;;;4996804;28;20053;-14
2022/03/15 05:48:58;;;;;;;0.80;0.35;;;17.60;62.30;;;;;;4988512;28;20054;-13
2022/03/15 05:51:24;;;;;;;0.50;0.50;;;17.50;62.30;;;;;;4988492;28;20050;-14
2022/03/15 05:53:49;;;;;;;0.40;0.40;;;17.50;62.30;;;;;;4985679;28;20039;-14
2022/03/15 05:56:15;;;;;;;0.50;0.50;;;17.50;62.40;;;;;;4989014;28;20396;-14
2022/03/15 05:58:42;;;;;;;0.60;0.60;;;17.50;62.30;;;;;;4987677;28;20038;-14
2022/03/15 06:01:08;;;;;;;0.35;0.35;;;17.50;62.40;;;;;;4986674;28;20479;-13
2022/03/15 06:03:34;;;;;;;0.47;0.40;;;17.50;62.40;;;;;;4989875;28;20553;-15
2022/03/15 06:06:00;;;;;;;0.50;0.50;;;17.50;63.20;;;;;;4988757;28;20057;-14
2022/03/15 06:08:26;;;;;;;0.40;0.40;;;17.50;62.40;;;;;;4986716;28;20050;-16
2022/03/15 06:10:52;;;;;;;0.60;0.45;;;17.50;62.10;;;;;;4993343;28;20050;-15
2022/03/15 06:13:18;;;;;;;0.50;0.50;;;17.50;62.20;;;;;;4997298;28;20046;-14
2022/03/15 06:15:43;;;;;;;0.40;0.40;;;17.50;62.00;;;;;;4996490;28;20057;-14
2022/03/15 06:18:09;;;;;;;0.45;0.45;;;17.50;62.00;;;;;;4996783;28;20046;-14
2022/03/15 06:20:35;;;;;;;1.05;0.52;;;17.60;61.90;;;;;;4995737;28;20084;-16
2022/03/15 06:23:01;;;;;;;0.43;0.43;;;17.60;62.20;;;;;;4996963;28;20092;-14
2022/03/15 06:25:27;;;;;;;0.63;0.63;;;17.60;62.10;;;;;;4997139;28;20043;-14
2022/03/15 06:27:52;;;;;;;0.60;0.60;;;17.60;62.10;;;;;;4995906;28;20046;-14
2022/03/15 06:30:19;;;;;;;0.50;0.40;;;17.50;62.40;;;;;;4996754;28;20108;-13
2022/03/15 06:32:44;;;;;;;0.43;0.38;;;17.50;62.30;;;;;;4994102;28;20034;-14
2022/03/15 06:35:12;;;;;;;2.63;0.50;;;17.50;62.20;;;;;;4995059;28;20057;-14
2022/03/15 06:37:50;;;;;;;1.58;0.40;;;17.50;62.10;;;;;;4994473;28;20042;-14
2022/03/15 06:40:19;;;;;;;0.40;0.40;;;17.50;62.40;;;;;;4995324;28;20053;-14
2022/03/15 06:42:44;;;;;;;1.60;0.60;;;17.50;62.30;;;;;;4994868;28;20542;-13
2022/03/15 06:45:10;;;;;;;0.60;0.60;;;17.50;62.40;;;;;;4991891;28;20488;-14
2022/03/15 06:47:36;;;;;;;1.50;0.50;;;17.50;62.50;;;;;;4976892;28;20039;-14
2022/03/15 06:50:04;;;;;;;2.58;0.70;;;17.50;62.60;;;;;;4984901;28;20113;-14
2022/03/15 06:52:29;;;;;;;0.68;0.60;;;17.50;62.80;;;;;;4996397;28;20467;-15
2022/03/15 06:54:55;;;;;;;0.60;0.43;;;17.50;62.80;;;;;;4995971;28;20467;-14
2022/03/15 06:57:21;;;;;;;0.50;0.50;;;17.50;62.80;;;;;;4995891;28;20046;-15
2022/03/15 06:59:47;;;;;;;1.60;0.70;;;17.50;62.80;;;;;;4995854;28;20053;-13
2022/03/15 07:02:13;;;;;;;1.20;0.60;;;17.50;62.80;;;;;;4996639;28;20031;-13
2022/03/15 07:04:39;;;;;;;0.40;0.40;;;17.50;62.80;;;;;;4995875;28;20045;-15
2022/03/15 07:07:05;;;;;;;0.73;0.50;;;17.50;62.90;;;;;;4995662;28;20042;-15
2022/03/15 07:09:30;;;;;;;0.40;0.40;;;17.40;62.80;;;;;;4996487;28;20038;-14
2022/03/15 07:11:56;;;;;;;0.60;0.60;;;17.50;62.90;;;;;;4995887;28;20058;-13
2022/03/15 07:14:22;;;;;;;0.80;0.70;;;17.40;63.00;;;;;;4995647;28;20038;-14
2022/03/15 07:16:47;;;;;;;1.13;0.70;;;17.50;63.00;;;;;;4995702;28;20042;-14
2022/03/15 07:19:13;;;;;;;0.50;0.50;;;17.50;63.00;;;;;;4996091;28;20133;-14
2022/03/15 07:21:39;;;;;;;0.43;0.43;;;17.50;63.80;;;;;;4995442;28;20506;-14
2022/03/15 07:24:05;;;;;;;1.48;0.70;;;17.40;63.00;;;;;;4995693;28;20046;-13
2022/03/15 07:26:32;;;;;;;1.33;0.50;;;17.40;63.00;;;;;;4995942;28;20102;-14
2022/03/15 07:28:58;;;;;;;0.60;0.60;;;17.40;63.00;;;;;;4995224;28;20419;-15
2022/03/15 07:31:24;;;;;;;0.40;0.40;;;17.40;63.10;;;;;;5006232;28;20574;-14
2022/03/15 07:33:50;;;;;;;0.73;0.50;;;17.50;63.10;;;;;;4982945;28;20471;-13
2022/03/15 07:36:17;;;;;;;0.60;0.60;;;17.50;63.20;;;;;;4984450;28;20051;-15
2022/03/15 07:38:42;;;;;;;0.40;0.40;;;17.50;63.40;;;;;;4987388;28;20414;-14
2022/03/15 07:41:08;;;;;;;0.65;0.47;;;17.40;63.20;;;;;;4996091;28;20042;-12
2022/03/15 07:43:33;;;;;;;0.50;0.50;;;17.50;63.40;;;;;;4981855;28;20054;-13
2022/03/15 07:45:59;;;;;;;0.40;0.40;;;17.50;63.40;;;;;;4995397;28;20455;-12
2022/03/15 07:48:25;;;;;;;1.17;0.50;;;17.40;63.30;;;;;;4995390;28;20056;-13
2022/03/15 07:50:52;;;;;;;1.75;0.50;;;17.50;63.40;;;;;;4995373;28;20045;-13
2022/03/15 07:53:18;;;;;;;5.07;0.85;;;17.40;63.20;;;;;;4995719;28;20045;-12
2022/03/15 07:55:43;;;;;;;1.60;0.55;;;17.50;63.30;;;;;;4994813;28;20042;-13
2022/03/15 07:58:09;;;;;;;2.20;0.70;;;17.50;63.40;;;;;;4993981;28;20539;-12
2022/03/15 08:00:34;;;;;;;0.50;0.50;;;17.50;63.40;;;;;;4993172;28;20096;-13
2022/03/15 08:03:00;;;;;;;0.63;0.63;;;17.40;63.40;;;;;;4975154;28;20142;-13
2022/03/15 08:05:28;;;;;;;1.10;0.38;;;17.40;63.50;;;;;;4976547;28;20054;-13
2022/03/15 08:07:54;;;;;;;0.50;0.50;;;17.40;63.60;;;;;;4975969;28;20041;-12
2022/03/15 08:10:20;;;;;;;2.03;0.47;;;17.40;63.60;;;;;;4976379;28;20134;-13
2022/03/15 08:12:45;;;;;;;2.00;0.60;;;17.40;63.50;;;;;;4975861;28;20047;-13
2022/03/15 08:15:11;;;;;;;1.33;0.70;;;17.40;63.40;;;;;;4976556;28;20133;-13
2022/03/15 08:17:37;;;;;;;2.15;0.40;;;17.40;63.50;;;;;;4976186;28;20050;-13
2022/03/15 08:20:04;;;;;;;1.77;0.45;;;17.40;63.60;;;;;;4975480;28;20416;-13
2022/03/15 08:22:30;;;;;;;0.70;0.68;;;17.40;63.50;;;;;;4992844;28;20085;-14
2022/03/15 08:24:56;;;;;;;4.88;0.70;;;17.40;63.50;;;;;;4994540;28;20099;-13
2022/03/15 08:27:22;;;;;;;2.95;0.85;;;17.40;63.50;;;;;;4995676;28;20133;-13
2022/03/15 08:29:48;;;;;;;2.15;0.43;;;17.40;63.50;;;;;;4994780;28;20042;-13
2022/03/15 08:32:13;;;;;;;1.90;0.60;;;17.40;63.50;;;;;;4982398;28;20046;-13
2022/03/15 08:34:39;;;;;;;6.15;0.60;;;17.40;63.50;;;;;;4976274;28;20524;-13
2022/03/15 08:37:05;;;;;;;1.00;0.68;;;17.40;63.50;;;;;;4974243;28;20522;-13
2022/03/15 08:39:31;;;;;;;0.52;0.50;;;17.40;63.50;;;;;;4994727;28;20407;-13
2022/03/15 08:41:57;;;;;;;1.40;0.40;;;17.40;63.60;;;;;;4998467;28;20507;-12
2022/03/15 08:44:23;;;;;;;0.50;0.35;;;17.40;63.50;;;;;;4998682;28;20451;-13
2022/03/15 08:46:49;;;;;;;0.40;0.40;;;17.40;63.50;;;;;;4997801;28;20042;-13
2022/03/15 08:49:15;;;;;;;1.23;0.50;;;17.40;63.50;;;;;;4998944;28;20049;-13
2022/03/15 08:51:41;;;;;;;0.60;0.50;;;17.40;63.50;;;;;;4998841;28;20038;-12
2022/03/15 08:54:07;;;;;;;0.40;0.40;;;17.40;63.50;;;;;;4998024;28;20038;-12
2022/03/15 08:56:33;;;;;;;0.43;0.43;;;17.40;63.50;;;;;;4986566;28;20065;-13
2022/03/15 08:58:58;;;;;;;0.55;0.55;;;17.40;63.60;;;;;;4978544;28;20039;-14
2022/03/15 09:01:24;;;;;;;1.20;0.60;;;17.40;63.60;;;;;;4979210;28;20047;-13
2022/03/15 09:03:50;;;;;;;0.43;0.40;;;17.40;63.60;;;;;;4978914;28;20054;-13
2022/03/15 09:06:15;;;;;;;1.75;0.93;;;17.40;63.60;;;;;;4979158;28;20138;-13
2022/03/15 09:08:41;;;;;;;0.40;0.32;;;17.40;63.50;;;;;;4979806;28;20408;-12
2022/03/15 09:11:08;;;;;;;0.45;0.45;;;17.40;63.40;;;;;;4997798;28;20050;-13
2022/03/15 09:13:34;;;;;;;0.52;0.52;;;17.40;63.50;;;;;;4998312;28;20066;-13
2022/03/15 09:16:00;;;;;;;0.43;0.43;;;17.40;63.50;;;;;;4988117;28;20054;-13
2022/03/15 09:18:26;;;;;;;0.75;0.40;;;17.40;63.50;;;;;;4978904;28;20065;-14
2022/03/15 09:20:52;;;;;;;0.43;0.43;;;17.40;63.50;;;;;;4986154;28;20077;-12
2022/03/15 09:23:18;;;;;;;1.00;0.50;;;17.40;63.50;;;;;;4998320;28;20042;-12
2022/03/15 09:25:44;;;;;;;0.50;0.50;;;17.40;63.60;;;;;;4997787;28;20038;-14
2022/03/15 09:28:10;;;;;;;0.43;0.43;;;17.40;63.50;;;;;;4989680;28;20039;-13
2022/03/15 09:30:36;;;;;;;2.05;0.60;;;17.40;63.60;;;;;;4988342;28;20136;-13
2022/03/15 09:33:02;;;;;;;0.30;0.30;;;17.40;63.60;;;;;;4997650;28;20042;-12
2022/03/15 09:35:28;;;;;;;0.47;0.43;;;17.40;63.60;;;;;;4998039;28;20062;-13
2022/03/15 09:37:54;;;;;;;0.68;0.60;;;17.30;63.60;;;;;;4996605;28;20038;-12
2022/03/15 09:40:25;;;;;;;0.43;0.40;;;17.40;63.50;;;;;;4997951;28;20507;-13
2022/03/15 09:42:53;;;;;;;1.05;0.80;;;17.30;63.50;;;;;;4997416;28;20065;-13
2022/03/15 09:45:21;;;;;;;0.47;0.47;;;17.40;63.50;;;;;;4986878;28;20046;-13
2022/03/15 09:47:46;;;;;;;0.40;0.40;;;17.40;63.50;;;;;;4976472;28;20039;-12
2022/03/15 09:50:13;;;;;;;0.85;0.43;;;17.40;63.50;;;;;;4983753;28;20054;-13
2022/03/15 09:52:39;;;;;;;0.40;0.40;;;17.40;63.50;;;;;;4988649;28;20147;-13
2022/03/15 09:55:05;;;;;;;0.50;0.50;;;17.40;63.50;;;;;;4977760;28;20142;-13
2022/03/15 09:57:31;;;;;;;0.38;0.38;;;17.40;63.50;;;;;;4978246;28;20411;-13
2022/03/15 09:59:59;;;;;;;0.38;0.38;;;17.30;63.50;;;;;;4996614;28;20054;-13
2022/03/15 10:02:25;;;;;;;0.50;0.50;;;17.30;63.50;;;;;;4996979;28;20054;-13
2022/03/15 10:04:51;;;;;;;0.40;0.40;;;17.40;63.50;;;;;;4997044;28;20121;-12
2022/03/15 10:07:17;;;;;;;0.40;0.40;;;17.40;63.60;;;;;;4996785;28;20057;-13
2022/03/15 10:09:43;;;;;;;0.30;0.30;;;17.40;63.50;;;;;;4996170;28;20050;-12
2022/03/15 10:12:09;;;;;;;0.30;0.30;;;17.30;63.40;;;;;;4996798;28;20395;-13
2022/03/15 10:14:42;;;;;;;0.30;0.30;;;17.40;63.50;;;;;;4996561;28;20087;-12
2022/03/15 10:17:11;;;;;;;0.50;0.50;;;17.30;63.50;;;;;;4995509;28;20125;-13
2022/03/15 10:19:36;;;;;;;0.45;0.30;;;17.40;63.50;;;;;;4997184;28;20046;-13
2022/03/15 10:22:04;;;;;;;0.30;0.30;;;17.30;63.40;;;;;;4996045;28;20053;-12
2022/03/15 10:24:30;;;;;;;0.50;0.50;;;17.30;63.50;;;;;;4997232;28;20050;-13
2022/03/15 10:26:57;;;;;;;0.38;0.38;;;17.40;63.50;;;;;;4996686;28;20092;-12
2022/03/15 10:29:24;;;;;;;0.70;0.47;;;17.30;63.40;;;;;;4992766;28;20066;-13
2022/03/15 10:31:51;;;;;;;0.30;0.30;;;17.40;63.40;;;;;;4993622;28;20043;-13
2022/03/15 10:34:17;;;;;;;0.40;0.40;;;17.30;63.40;;;;;;4981911;28;20051;-12
2022/03/15 10:36:44;;;;;;;0.50;0.50;;;17.30;63.40;;;;;;4977448;28;20047;-12
2022/03/15 10:39:11;;;;;;;0.55;0.55;;;17.30;63.40;;;;;;4991964;28;20050;-13
2022/03/15 10:41:51;;;;;;;0.50;0.50;;;17.30;63.40;;;;;;4996322;28;20042;-12
2022/03/15 10:44:18;;;;;;;0.40;0.40;;;17.30;63.40;;;;;;4996012;28;20042;-13
2022/03/15 10:46:43;;;;;;;0.47;0.40;;;17.40;63.40;;;;;;4996940;28;20583;-13
2022/03/15 10:49:09;;;;;;;0.80;0.40;;;17.30;63.30;;;;;;4980513;28;20507;-12
2022/03/15 10:51:36;;;;;;;0.40;0.40;;;17.40;63.40;;;;;;4977429;28;20451;-13
2022/03/15 10:54:03;;;;;;;0.40;0.40;;;17.30;63.40;;;;;;4975402;28;20051;-13
2022/03/15 10:56:29;;;;;;;0.30;0.30;;;17.30;63.30;;;;;;4977788;28;20050;-13
2022/03/15 10:58:59;;;;;;;0.30;0.30;;;17.30;63.30;;;;;;4976341;28;20047;-13
2022/03/15 11:01:26;;;;;;;0.30;0.30;;;17.30;63.30;;;;;;4984177;28;20050;-12
2022/03/15 11:04:02;;;;;;;0.85;0.63;;;17.40;63.40;;;;;;4989158;28;20042;-14
2022/03/15 11:06:31;;;;;;;0.52;0.52;;;17.30;63.30;;;;;;4995398;28;20133;-12
2022/03/15 11:08:58;;;;;;;0.30;0.30;;;17.40;63.30;;;;;;4994585;28;20061;-13
2022/03/15 11:11:25;;;;;;;0.93;0.45;;;17.30;63.30;;;;;;4996302;28;20125;-14
2022/03/15 11:14:02;;;;;;;0.35;0.35;;;17.40;63.40;;;;;;4995683;28;20041;-14
2022/03/15 11:16:30;;;;;;;0.40;0.40;;;17.30;63.30;;;;;;4995591;28;20050;-13
2022/03/15 11:18:56;;;;;;;3.83;0.65;;;17.30;63.30;;;;;;4995363;28;20471;-14
2022/03/15 11:21:21;;;;;;;0.25;0.25;;;17.40;63.40;;;;;;4994297;28;20520;-14
2022/03/15 11:23:48;;;;;;;0.60;0.40;;;17.30;63.40;;;;;;4994161;28;20042;-13
2022/03/15 11:26:17;;;;;;;0.50;0.50;;;17.40;63.40;;;;;;4995036;28;20054;-14
2022/03/15 11:28:43;;;;;;;0.40;0.30;;;17.40;63.40;;;;;;4994649;28;20054;-13
2022/03/15 11:31:09;;;;;;;0.40;0.40;;;17.40;63.30;;;;;;4974689;28;20118;-13
2022/03/15 11:33:35;;;;;;;0.35;0.35;;;17.40;64.10;;;;;;4983782;28;20078;-13
2022/03/15 11:36:02;;;;;;;0.43;0.20;;;17.40;63.30;;;;;;4988740;28;20042;-14
2022/03/15 11:38:28;;;;;;;0.70;0.45;;;17.40;64.10;;;;;;4985445;28;20446;-13
2022/03/15 11:40:55;;;;;;;0.50;0.50;;;17.40;63.30;;;;;;4995373;28;20525;-14
2022/03/15 11:43:40;;;;;;;0.40;0.40;;;17.40;63.10;;;;;;4995139;28;20057;-14
2022/03/15 11:46:43;;;;;;;0.47;0.47;;;17.50;63.20;;;;;;4994068;28;20042;-14
2022/03/15 11:49:33;;;;;;;0.50;0.50;;;17.40;63.30;;;;;;5001415;28;20069;-14
2022/03/15 11:52:09;;;;;;;0.47;0.47;;;17.50;63.20;;;;;;4995256;28;20058;-13
2022/03/15 11:54:50;;;;;;;0.30;0.30;;;17.50;63.00;;;;;;4976642;28;20058;-13
2022/03/15 11:57:21;;;;;;;0.50;0.50;;;17.50;63.10;;;;;;4975830;28;20512;-13
2022/03/15 11:59:52;;;;;;;0.50;0.50;;;17.50;63.00;;;;;;4985497;28;20047;-14
2022/03/15 12:02:32;;;;;;;0.52;0.52;;;17.50;63.20;;;;;;4976115;28;20062;-13
2022/03/15 12:04:58;;;;;;;0.50;0.50;;;17.50;63.20;;;;;;4980660;28;20061;-13
2022/03/15 12:07:45;;;;;;;0.32;0.32;;;17.40;63.20;;;;;;4995635;28;20495;-13
2022/03/15 12:10:11;;;;;;;0.50;0.50;;;17.50;63.30;;;;;;4993778;28;20042;-12
2022/03/15 12:12:39;;;;;;;0.50;0.50;;;17.50;63.20;;;;;;4995380;28;20078;-13
2022/03/15 12:15:14;;;;;;;0.70;0.70;;;17.50;63.10;;;;;;4644270;28;10000567;-13
2022/03/15 12:17:39;;;;;;;0.35;0.35;;;17.50;63.20;;;;;;4996796;28;20434;-13
2022/03/15 12:20:19;;;;;;;0.32;0.32;;;17.50;64.30;;;;;;5001121;28;20114;-14
2022/03/15 12:22:47;;;;;;;3.13;0.60;;;17.50;63.60;;;;;;4993658;28;20772;-14
2022/03/15 12:25:18;;;;;;;0.47;0.47;;;17.50;63.80;;;;;;5014526;28;20053;-13
2022/03/15 12:27:49;;;;;;;0.47;0.40;;;17.50;63.70;;;;;;5005514;28;20455;-13
2022/03/15 12:30:35;;;;;;;0.40;0.40;;;17.50;63.70;;;;;;4988199;28;20105;-12
2022/03/15 12:33:01;;;;;;;0.68;0.50;;;17.50;63.80;;;;;;4994535;28;20077;-13
2022/03/15 12:35:30;;;;;;;1.13;0.52;;;17.60;63.90;;;;;;4994848;28;20042;-13
2022/03/15 12:38:06;;;;;;;0.40;0.40;;;17.60;64.20;;;;;;4991534;28;20050;-14
2022/03/15 12:40:32;;;;;;;0.98;0.60;;;17.60;64.20;;;;;;4993849;28;20400;-13
2022/03/15 12:42:58;;;;;;;0.50;0.50;;;17.60;64.10;;;;;;5001709;28;20142;-13
2022/03/15 12:45:24;;;;;;;0.80;0.30;;;17.60;64.10;;;;;;4996338;28;20418;-13